Time;durP1;ratioP1;P1;durP2;ratioP2;P2;SDS_P1;SDS_P2;PMS_P1;PMS_P2;Temp;Humidity;BMP_temperature;BMP_pressure;BME280_temperature;BME280_humidity;BME280_pressure;Samples;Min_cycle;Max_cycle;Signal;HPM_P1;HPM_P2
2020/12/08 00:00:28;;;;;;;6.97;5.32;;;;;;;16.95;31.83;93989.25;5075270;28;20056;-56
2020/12/08 00:02:55;;;;;;;6.43;5.22;;;;;;;17.02;32.08;93989.44;5075488;28;20048;-57
2020/12/08 00:05:23;;;;;;;6.38;5.00;;;;;;;17.03;31.96;94001.53;5074492;28;20463;-57
2020/12/08 00:07:50;;;;;;;6.78;5.03;;;;;;;17.03;31.66;93996.25;5075317;28;20060;-58
2020/12/08 00:10:21;;;;;;;7.20;6.00;;;;;;;17.09;31.82;93989.63;5075306;28;20051;-57
2020/12/08 00:12:51;;;;;;;7.32;5.70;;;;;;;16.93;32.03;93996.72;5074781;28;20060;-57
2020/12/08 00:15:18;;;;;;;8.10;5.75;;;;;;;16.92;32.02;94003.13;5075324;28;20393;-59
2020/12/08 00:17:46;;;;;;;9.25;6.45;;;;;;;16.93;31.79;94007.28;5075353;28;20048;-59
2020/12/08 00:20:20;;;;;;;7.30;5.63;;;;;;;16.96;31.79;94009.25;5075041;28;20438;-58
2020/12/08 00:22:47;;;;;;;8.00;6.28;;;;;;;17.07;31.46;94006.91;5075073;28;20053;-58
2020/12/08 00:25:15;;;;;;;8.65;6.47;;;;;;;17.12;31.51;94015.34;5075250;28;20052;-56
2020/12/08 00:27:42;;;;;;;8.45;6.22;;;;;;;17.25;31.07;94016.88;5075226;28;20049;-62
2020/12/08 00:30:11;;;;;;;6.38;5.30;;;;;;;17.14;31.07;94012.38;5074866;28;20044;-56
2020/12/08 00:32:40;;;;;;;6.85;5.15;;;;;;;16.91;31.62;94012.91;5075109;28;20044;-57
2020/12/08 00:35:08;;;;;;;6.65;5.03;;;;;;;16.97;31.88;94013.44;5074901;28;20048;-57
2020/12/08 00:37:36;;;;;;;7.32;5.35;;;;;;;17.10;31.57;94017.56;5075137;28;20493;-56
2020/12/08 00:40:04;;;;;;;6.70;5.30;;;;;;;17.04;31.72;94013.63;5074644;28;20066;-58
2020/12/08 00:42:31;;;;;;;6.43;5.20;;;;;;;16.79;32.16;94017.44;5074294;28;20045;-59
2020/12/08 00:44:58;;;;;;;6.50;5.65;;;;;;;17.08;31.10;94008.44;5074227;28;20044;-57
2020/12/08 00:47:25;;;;;;;6.60;5.03;;;;;;;17.01;31.46;94022.22;5074564;28;20055;-59
2020/12/08 00:49:52;;;;;;;5.00;4.40;;;;;;;17.01;31.48;94024.09;5073307;28;20470;-58
2020/12/08 00:52:20;;;;;;;5.55;4.35;;;;;;;16.96;31.54;94027.75;5074887;28;20056;-58
2020/12/08 00:54:47;;;;;;;4.97;4.28;;;;;;;17.01;31.49;94035.44;5078942;28;20059;-58
2020/12/08 00:57:23;;;;;;;5.97;4.55;;;;;;;16.91;31.97;94030.59;5078065;28;20451;-57
2020/12/08 00:59:50;;;;;;;6.72;4.90;;;;;;;17.15;31.73;94035.81;5077703;28;20070;-60
2020/12/08 01:02:18;;;;;;;8.30;6.18;;;;;;;17.15;32.06;94030.53;5077777;28;20044;-55
2020/12/08 01:04:46;;;;;;;5.57;4.32;;;;;;;17.04;32.07;94034.75;5061294;28;20053;-59
2020/12/08 01:07:16;;;;;;;5.50;4.15;;;;;;;17.23;31.54;94036.81;5077788;28;20386;-57
2020/12/08 01:09:43;;;;;;;5.88;5.13;;;;;;;17.29;31.36;94039.97;5078383;28;20044;-59
2020/12/08 01:12:11;;;;;;;7.25;5.55;;;;;;;17.12;32.26;94033.06;5077443;28;20048;-57
2020/12/08 01:14:38;;;;;;;8.55;6.30;;;;;;;17.01;31.93;94039.94;5077231;28;20048;-58
2020/12/08 01:17:06;;;;;;;9.95;7.82;;;;;;;17.16;31.79;94039.22;5077593;28;20059;-58
2020/12/08 01:19:35;;;;;;;9.68;7.93;;;;;;;17.27;31.65;94043.72;5077280;28;20056;-57
2020/12/08 01:22:04;;;;;;;11.27;8.52;;;;;;;17.09;32.13;94036.38;5077404;28;20051;-60
2020/12/08 01:24:32;;;;;;;11.15;8.40;;;;;;;17.08;32.17;94030.34;5078408;28;20366;-61
2020/12/08 01:26:59;;;;;;;10.52;8.05;;;;;;;17.21;31.80;94029.22;5077411;28;20064;-58
2020/12/08 01:29:26;;;;;;;8.88;7.05;;;;;;;17.14;31.92;94029.00;5078124;28;20055;-56
2020/12/08 01:31:53;;;;;;;9.10;7.60;;;;;;;17.35;31.88;94028.06;5077336;28;20048;-55
2020/12/08 01:34:22;;;;;;;7.65;6.70;;;;;;;17.37;31.64;94031.13;5077484;28;20073;-58
2020/12/08 01:36:51;;;;;;;6.75;5.97;;;;;;;17.26;31.54;94031.63;5078096;28;20056;-56
2020/12/08 01:39:20;;;;;;;8.23;6.95;;;;;;;17.25;31.67;94035.34;5077061;28;20362;-60
2020/12/08 01:41:47;;;;;;;7.70;6.75;;;;;;;17.22;31.57;94030.75;5076985;28;20053;-57
2020/12/08 01:44:15;;;;;;;7.25;6.10;;;;;;;17.29;31.55;94030.16;5078298;28;20048;-59
2020/12/08 01:46:43;;;;;;;7.82;6.20;;;;;;;17.21;31.79;94025.81;5076987;28;20052;-59
2020/12/08 01:49:10;;;;;;;6.85;5.45;;;;;;;17.09;31.85;94026.59;5077068;28;20048;-57
2020/12/08 01:51:38;;;;;;;8.02;5.20;;;;;;;17.17;31.71;94028.31;5076568;28;20111;-57
2020/12/08 01:54:07;;;;;;;6.57;5.65;;;;;;;17.23;31.75;94029.66;5076866;28;20048;-57
2020/12/08 01:56:42;;;;;;;7.20;6.22;;;;;;;17.27;31.92;94043.72;5077088;28;20048;-57
2020/12/08 01:59:13;;;;;;;7.65;6.43;;;;;;;17.35;31.75;94033.34;5077168;28;20055;-56
2020/12/08 02:01:48;;;;;;;7.50;6.63;;;;;;;17.44;31.50;94026.06;5076321;28;20049;-56
2020/12/08 02:04:18;;;;;;;10.18;6.88;;;;;;;17.21;32.38;94026.56;5060034;28;20355;-59
2020/12/08 02:06:46;;;;;;;9.80;8.75;;;;;;;17.37;31.74;94031.91;5077595;28;20060;-59
2020/12/08 02:09:15;;;;;;;12.43;10.73;;;;;;;17.12;32.39;94020.63;5076614;28;20052;-59
2020/12/08 02:11:42;;;;;;;15.35;11.95;;;;;;;17.11;32.40;94019.09;5076048;28;20052;-59
2020/12/08 02:14:11;;;;;;;15.82;12.55;;;;;;;17.01;32.63;94024.88;5076137;28;20048;-57
2020/12/08 02:16:38;;;;;;;14.38;12.30;;;;;;;17.31;32.34;94017.38;5076384;28;20055;-59
2020/12/08 02:19:06;;;;;;;12.90;10.90;;;;;;;17.19;32.29;94026.13;5077527;28;20052;-57
2020/12/08 02:21:37;;;;;;;11.48;9.30;;;;;;;17.13;32.57;94027.47;5075988;28;20045;-57
2020/12/08 02:24:11;;;;;;;11.95;9.27;;;;;;;17.08;32.38;94024.28;5076369;28;20367;-59
2020/12/08 02:26:40;;;;;;;12.07;8.63;;;;;;;17.13;32.47;94024.03;5077302;28;20044;-59
2020/12/08 02:29:11;;;;;;;7.80;6.72;;;;;;;16.99;32.69;94029.72;5076356;28;20063;-59
2020/12/08 02:31:42;;;;;;;8.25;6.80;;;;;;;17.10;32.45;94032.66;5076966;28;20040;-61
2020/12/08 02:34:12;;;;;;;9.27;7.95;;;;;;;16.91;32.77;94035.88;5076168;28;20044;-57
2020/12/08 02:36:39;;;;;;;8.48;7.05;;;;;;;17.10;32.46;94038.69;5076073;28;20055;-59
2020/12/08 02:39:07;;;;;;;8.10;5.75;;;;;;;16.98;32.67;94030.03;5076087;28;20053;-61
2020/12/08 02:41:36;;;;;;;6.03;5.28;;;;;;;17.19;32.45;94031.44;5075585;28;20052;-60
2020/12/08 02:44:05;;;;;;;7.20;6.05;;;;;;;17.35;31.92;94026.19;5076744;28;20040;-57
2020/12/08 02:46:34;;;;;;;6.85;5.20;;;;;;;17.11;32.31;94021.75;5075904;28;20048;-59
2020/12/08 02:49:02;;;;;;;6.15;5.32;;;;;;;16.95;32.51;94020.94;5076675;28;20052;-58
2020/12/08 02:51:32;;;;;;;5.80;5.05;;;;;;;17.00;32.72;94023.31;5075319;28;20044;-59
2020/12/08 02:54:03;;;;;;;7.55;5.88;;;;;;;17.00;32.42;94025.97;5075716;28;20040;-58
2020/12/08 02:56:30;;;;;;;7.85;6.10;;;;;;;16.78;32.66;94021.16;5075607;28;20048;-61
2020/12/08 02:59:03;;;;;;;;;;;;;;;17.21;31.96;94018.66;5076128;28;20040;-57
2020/12/08 03:01:30;;;;;;;7.38;5.88;;;;;;;17.24;32.16;94017.22;5075248;28;19920;-60
2020/12/08 03:04:00;;;;;;;6.28;5.30;;;;;;;16.99;32.31;94013.88;5075567;28;20094;-57
2020/12/08 03:06:29;;;;;;;6.13;4.80;;;;;;;16.92;32.43;94011.03;5075396;28;20387;-60
2020/12/08 03:08:58;;;;;;;6.75;5.55;;;;;;;16.94;32.48;94016.75;5075408;28;20055;-57
2020/12/08 03:11:32;;;;;;;7.45;6.43;;;;;;;17.08;32.34;94024.28;5074997;28;20056;-59
2020/12/08 03:14:02;;;;;;;10.43;6.78;;;;;;;17.29;32.24;94029.41;5074711;28;20047;-56
2020/12/08 03:16:30;;;;;;;6.97;6.03;;;;;;;16.90;32.66;94034.34;5074338;28;20052;-60
2020/12/08 03:18:57;;;;;;;6.20;5.60;;;;;;;16.93;32.35;94023.13;5075278;28;20498;-57
2020/12/08 03:21:35;;;;;;;7.03;5.90;;;;;;;16.80;32.87;94029.53;5074758;28;20048;-58
2020/12/08 03:24:08;;;;;;;8.13;6.22;;;;;;;16.90;32.34;94036.97;5075127;28;20363;-58
2020/12/08 03:26:35;;;;;;;8.15;6.30;;;;;;;17.02;32.44;94029.03;5075415;28;20355;-59
2020/12/08 03:29:02;;;;;;;9.10;6.57;;;;;;;17.01;32.39;94026.75;5075328;28;20052;-63
2020/12/08 03:31:31;;;;;;;9.50;7.63;;;;;;;16.84;32.63;94028.53;5074672;28;20053;-62
2020/12/08 03:34:01;;;;;;;10.48;7.78;;;;;;;16.88;32.58;94033.91;5075175;28;20051;-57
2020/12/08 03:36:28;;;;;;;9.18;7.80;;;;;;;16.83;32.84;94032.25;5074837;28;20470;-60
2020/12/08 03:38:58;;;;;;;9.10;7.53;;;;;;;16.93;32.74;94041.63;5074777;28;20052;-57
2020/12/08 03:41:27;;;;;;;8.88;7.75;;;;;;;17.03;32.57;94038.50;5074537;28;20052;-59
2020/12/08 03:44:02;;;;;;;9.68;8.23;;;;;;;16.82;32.84;94027.31;5074443;28;20386;-58
2020/12/08 03:46:30;;;;;;;9.52;7.82;;;;;;;16.97;32.77;94039.06;5074619;28;20056;-57
2020/12/08 03:48:58;;;;;;;8.10;6.43;;;;;;;16.97;32.18;94042.47;5074791;28;20052;-59
2020/12/08 03:51:26;;;;;;;8.07;6.07;;;;;;;16.89;32.23;94046.00;5074291;28;20078;-59
2020/12/08 03:53:57;;;;;;;7.50;6.20;;;;;;;16.90;32.19;94050.19;5074580;28;20071;-57
2020/12/08 03:56:27;;;;;;;6.15;5.45;;;;;;;16.96;32.03;94040.94;5074573;28;20389;-56
2020/12/08 03:59:01;;;;;;;7.95;6.18;;;;;;;16.97;32.26;94042.47;5074590;28;20049;-57
2020/12/08 04:01:29;;;;;;;7.97;5.75;;;;;;;17.14;31.86;94044.84;5074182;28;20048;-57
2020/12/08 04:03:56;;;;;;;5.68;4.72;;;;;;;16.98;32.09;94054.59;5074507;28;20364;-58
2020/12/08 04:06:24;;;;;;;5.72;4.50;;;;;;;16.98;31.99;94059.88;5075458;28;20055;-57
2020/12/08 04:08:53;;;;;;;5.00;4.40;;;;;;;16.90;32.00;94066.00;5074488;28;20048;-62
2020/12/08 04:11:26;;;;;;;6.13;5.30;;;;;;;17.04;31.89;94071.72;5074010;28;20473;-63
2020/12/08 04:13:54;;;;;;;5.75;5.15;;;;;;;16.83;32.18;94071.09;5074133;28;20367;-57
2020/12/08 04:16:21;;;;;;;5.72;4.65;;;;;;;16.93;32.01;94065.38;5074460;28;20455;-59
2020/12/08 04:18:52;;;;;;;6.20;4.55;;;;;;;17.06;31.91;94077.44;5075320;28;20336;-57
2020/12/08 04:21:24;;;;;;;5.47;4.82;;;;;;;16.74;32.36;94071.22;5074967;28;20044;-59
2020/12/08 04:24:02;;;;;;;5.70;5.00;;;;;;;17.05;31.83;94073.25;5074151;28;20067;-61
2020/12/08 04:26:32;;;;;;;6.38;5.15;;;;;;;16.93;32.00;94065.38;5074242;28;20052;-60
2020/12/08 04:29:00;;;;;;;6.13;5.47;;;;;;;17.03;32.27;94069.41;5074439;28;20438;-59
2020/12/08 04:31:28;;;;;;;6.28;5.38;;;;;;;17.09;32.05;94068.84;5073085;28;20045;-57
2020/12/08 04:33:56;;;;;;;6.22;5.47;;;;;;;17.13;31.99;94063.66;5075104;28;20075;-60
2020/12/08 04:36:24;;;;;;;6.10;5.50;;;;;;;17.15;31.60;94070.16;5075102;28;20060;-62
2020/12/08 04:38:51;;;;;;;6.88;4.63;;;;;;;17.13;31.75;94074.22;5074981;28;20048;-58
2020/12/08 04:41:27;;;;;;;5.60;4.72;;;;;;;17.10;32.09;94070.38;5074815;28;20040;-58
2020/12/08 04:43:54;;;;;;;4.68;4.10;;;;;;;17.06;31.65;94080.09;5073940;28;20044;-59
2020/12/08 04:46:22;;;;;;;6.95;5.43;;;;;;;17.05;31.90;94078.53;5074827;28;20744;-57
2020/12/08 04:48:52;;;;;;;6.63;5.32;;;;;;;17.10;31.71;94074.91;5075015;28;20044;-59
2020/12/08 04:51:19;;;;;;;6.82;5.38;;;;;;;17.08;31.78;94075.22;5074699;28;20051;-57
2020/12/08 04:53:47;;;;;;;7.00;5.60;;;;;;;17.21;31.82;94076.75;5074460;28;20060;-61
2020/12/08 04:56:14;;;;;;;7.43;5.70;;;;;;;17.41;31.53;94069.75;5074750;28;20071;-58
2020/12/08 04:58:44;;;;;;;8.43;6.15;;;;;;;17.27;31.30;94085.97;5074925;28;20044;-59
2020/12/08 05:01:31;;;;;;;8.80;5.60;;;;;;;17.14;31.57;94076.53;5074856;28;20052;-59
2020/12/08 05:04:00;;;;;;;7.80;6.20;;;;;;;17.15;31.90;94074.66;5074587;28;20047;-58
2020/12/08 05:06:28;;;;;;;7.60;6.78;;;;;;;17.01;31.97;94071.63;5074680;28;20052;-57
2020/12/08 05:09:08;;;;;;;8.07;7.10;;;;;;;17.09;31.90;94066.22;5074804;28;20048;-58
2020/12/08 05:11:38;;;;;;;8.20;6.72;;;;;;;17.11;31.99;94076.44;5074498;28;20324;-58
2020/12/08 05:14:06;;;;;;;10.25;8.02;;;;;;;17.16;31.88;94074.31;5074112;28;20340;-59
2020/12/08 05:16:34;;;;;;;8.38;7.47;;;;;;;17.17;31.73;94086.44;5074981;28;20052;-61
2020/12/08 05:19:08;;;;;;;9.07;7.50;;;;;;;17.21;31.55;94092.59;5074710;28;20059;-60
2020/12/08 05:21:49;;;;;;;9.15;7.78;;;;;;;17.19;31.90;94094.06;5074461;28;20752;-57
2020/12/08 05:24:29;;;;;;;8.43;7.50;;;;;;;17.29;31.42;94098.09;5074462;28;20052;-59
2020/12/08 05:27:01;;;;;;;8.95;8.07;;;;;;;17.23;31.47;94090.41;5074630;28;20052;-60
2020/12/08 05:29:33;;;;;;;9.40;8.18;;;;;;;17.15;31.82;94103.72;5073341;28;20059;-62
2020/12/08 05:32:29;;;;;;;8.48;7.57;;;;;;;17.30;31.53;94099.63;5073800;28;20478;-59
2020/12/08 05:34:56;;;;;;;8.40;7.30;;;;;;;17.21;31.80;94100.53;5073836;28;20056;-69
2020/12/08 05:37:23;;;;;;;8.07;6.95;;;;;;;17.16;31.94;94095.47;5073681;28;20044;-56
2020/12/08 05:39:51;;;;;;;7.80;6.90;;;;;;;17.07;32.06;94091.41;5077560;28;20048;-56
2020/12/08 05:42:21;;;;;;;12.00;7.82;;;;;;;16.56;33.21;94091.75;5078045;28;20052;-55
2020/12/08 05:44:52;;;;;;;8.23;7.40;;;;;;;17.51;31.33;94094.94;5077685;28;20044;-56
2020/12/08 05:47:20;;;;;;;9.13;7.90;;;;;;;17.21;31.67;94100.53;5078120;28;20053;-55
2020/12/08 05:50:01;;;;;;;8.57;7.38;;;;;;;17.19;31.68;94094.81;5077775;28;20063;-58
2020/12/08 05:52:32;;;;;;;8.02;7.13;;;;;;;17.15;31.74;94093.91;5092209;28;20105;-56
2020/12/08 05:55:13;;;;;;;9.10;7.03;;;;;;;17.37;31.59;94099.81;5118517;28;20050;-55
2020/12/08 05:57:41;;;;;;;8.52;7.60;;;;;;;17.30;31.66;94092.47;5117111;28;20047;-53
2020/12/08 06:00:21;;;;;;;8.93;7.40;;;;;;;17.29;31.71;94098.09;5097744;28;20044;-56
2020/12/08 06:02:48;;;;;;;8.30;7.05;;;;;;;17.54;31.57;94104.84;5118201;28;20051;-53
2020/12/08 06:05:26;;;;;;;8.55;7.47;;;;;;;17.21;31.50;94103.19;5118388;28;20036;-53
2020/12/08 06:07:53;;;;;;;9.52;6.63;;;;;;;17.23;31.24;94108.88;5118247;28;20051;-58
2020/12/08 06:10:20;;;;;;;9.02;6.90;;;;;;;17.27;31.37;94112.41;5117929;28;20051;-54
2020/12/08 06:12:57;;;;;;;9.40;7.00;;;;;;;17.49;31.40;94116.41;5117711;28;20125;-54
2020/12/08 06:15:25;;;;;;;9.18;6.97;;;;;;;17.44;31.19;94115.91;5118116;28;20071;-55
2020/12/08 06:17:52;;;;;;;8.38;6.82;;;;;;;17.44;31.66;94121.19;5118165;28;20081;-56
2020/12/08 06:20:20;;;;;;;8.27;6.75;;;;;;;17.53;30.78;94124.44;5117800;28;20055;-54
2020/12/08 06:22:57;;;;;;;9.80;7.53;;;;;;;17.36;31.71;94130.00;5117808;28;20055;-55
2020/12/08 06:25:25;;;;;;;9.18;7.47;;;;;;;17.48;31.41;94129.97;5118026;28;20035;-55
2020/12/08 06:27:56;;;;;;;9.50;8.02;;;;;;;17.46;31.55;94134.81;5117910;28;20472;-54
2020/12/08 06:30:23;;;;;;;11.88;8.07;;;;;;;17.49;31.67;94142.09;5117499;28;20140;-55
2020/12/08 06:32:51;;;;;;;11.27;8.55;;;;;;;17.49;30.90;94140.22;5117837;28;20051;-57
2020/12/08 06:35:19;;;;;;;10.68;8.65;;;;;;;17.43;31.14;94154.72;5117797;28;20339;-54
2020/12/08 06:37:51;;;;;;;9.68;8.63;;;;;;;17.41;30.98;94149.00;5117747;28;20055;-54
2020/12/08 06:40:21;;;;;;;10.38;8.40;;;;;;;17.46;31.33;94150.69;5105384;28;20474;-57
2020/12/08 06:42:48;;;;;;;11.77;9.52;;;;;;;17.47;31.89;94154.88;5078928;28;20056;-54
2020/12/08 06:45:20;;;;;;;9.18;7.22;;;;;;;17.44;31.24;94152.88;5117621;28;20050;-57
2020/12/08 06:47:48;;;;;;;11.00;7.20;;;;;;;17.49;31.38;94156.06;5117620;28;20489;-55
2020/12/08 06:50:30;;;;;;;7.45;6.43;;;;;;;17.25;31.78;94156.09;5102548;28;20052;-55
2020/12/08 06:52:59;;;;;;;9.80;7.35;;;;;;;17.32;31.38;94156.31;5096996;28;20459;-55
2020/12/08 06:55:27;;;;;;;8.90;6.95;;;;;;;17.32;31.37;94160.81;5096982;28;20043;-56
2020/12/08 06:58:04;;;;;;;9.30;7.30;;;;;;;17.22;31.63;94167.34;5096941;28;20052;-54
2020/12/08 07:00:31;;;;;;;10.95;8.07;;;;;;;17.63;30.96;94165.50;5116692;28;20051;-56
2020/12/08 07:03:00;;;;;;;10.00;8.00;;;;;;;17.43;31.55;94172.47;5099318;28;20047;-56
2020/12/08 07:05:28;;;;;;;12.20;10.00;;;;;;;17.25;31.69;94167.44;5099274;28;20467;-57
2020/12/08 07:07:58;;;;;;;13.63;10.18;;;;;;;17.17;32.04;94170.94;5117096;28;20050;-58
2020/12/08 07:10:25;;;;;;;12.38;9.85;;;;;;;17.15;31.83;94172.38;5116700;28;20058;-55
2020/12/08 07:12:54;;;;;;;13.02;9.75;;;;;;;17.06;32.06;94172.50;5116625;28;20054;-54
2020/12/08 07:15:25;;;;;;;13.32;9.68;;;;;;;17.26;32.15;94179.53;5108851;28;20046;-55
2020/12/08 07:17:58;;;;;;;14.07;10.90;;;;;;;17.05;32.52;94178.13;5116977;28;20434;-55
2020/12/08 07:20:26;;;;;;;12.70;10.00;;;;;;;17.52;32.60;94189.75;5116416;28;20054;-55
2020/12/08 07:22:54;;;;;;;13.48;11.60;;;;;;;17.99;30.58;94183.16;5116785;28;20059;-55
2020/12/08 07:25:22;;;;;;;13.88;10.68;;;;;;;17.86;31.35;94190.34;5116031;28;20039;-56
2020/12/08 07:27:52;;;;;;;13.60;10.23;;;;;;;18.09;30.10;94187.94;5116606;28;20036;-53
2020/12/08 07:30:23;;;;;;;13.63;10.00;;;;;;;17.98;30.65;94187.69;5116453;28;20051;-56
2020/12/08 07:32:52;;;;;;;14.23;11.00;;;;;;;17.93;30.98;94189.78;5116692;28;20051;-55
2020/12/08 07:35:29;;;;;;;16.02;12.73;;;;;;;18.22;29.63;94189.44;5116675;28;20055;-54
2020/12/08 07:37:58;;;;;;;17.48;13.00;;;;;;;18.27;30.83;94188.44;5103983;28;20363;-54
2020/12/08 07:40:37;;;;;;;16.67;13.05;;;;;;;18.84;28.40;94187.25;5075575;28;20041;-55
2020/12/08 07:43:05;;;;;;;13.00;10.48;;;;;;;18.76;28.30;94191.59;5082164;28;20048;-55
2020/12/08 07:45:40;;;;;;;11.90;9.60;;;;;;;19.28;27.09;94199.28;5090176;28;20048;-57
2020/12/08 07:48:09;;;;;;;13.35;9.88;;;;;;;18.64;27.86;94191.66;5090182;28;20047;-54
2020/12/08 07:50:36;;;;;;;11.52;9.90;;;;;;;18.94;28.08;94199.97;5095808;28;20374;-56
2020/12/08 07:53:08;;;;;;;11.82;9.73;;;;;;;19.66;26.74;94195.94;5116284;28;20085;-54
2020/12/08 07:55:40;;;;;;;12.68;9.32;;;;;;;19.82;26.48;94189.84;5116293;28;20373;-55
2020/12/08 07:58:08;;;;;;;12.93;10.05;;;;;;;19.80;26.49;94187.53;5115980;28;20035;-56
2020/12/08 08:00:35;;;;;;;14.88;10.35;;;;;;;17.23;30.77;94185.50;5115640;28;20048;-56
2020/12/08 08:03:03;;;;;;;13.30;10.43;;;;;;;18.48;29.29;94189.00;5098297;28;20054;-55
2020/12/08 08:05:31;;;;;;;15.80;11.32;;;;;;;19.32;28.38;94194.03;5116150;28;20043;-54
2020/12/08 08:07:58;;;;;;;14.52;11.30;;;;;;;19.85;28.61;94191.78;5102188;28;20138;-54
2020/12/08 08:10:26;;;;;;;15.95;12.15;;;;;;;20.56;27.06;94195.81;5075248;28;20048;-58
2020/12/08 08:12:53;;;;;;;14.48;10.73;;;;;;;20.90;25.81;94194.88;5078527;28;20044;-57
2020/12/08 08:15:20;;;;;;;14.60;10.15;;;;;;;20.94;26.22;94201.00;5115937;28;20469;-56
2020/12/08 08:17:47;;;;;;;13.43;10.73;;;;;;;20.69;27.59;94207.81;5103318;28;20047;-58
2020/12/08 08:20:14;;;;;;;14.00;12.10;;;;;;;20.45;27.21;94210.78;5075156;28;20048;-59
2020/12/08 08:22:41;;;;;;;15.20;11.43;;;;;;;19.37;28.17;94222.94;5075160;28;20044;-56
2020/12/08 08:25:08;;;;;;;15.68;11.60;;;;;;;20.21;27.49;94217.13;5075398;28;20473;-56
2020/12/08 08:27:35;;;;;;;19.48;13.93;;;;;;;20.05;26.88;94214.56;5083955;28;20055;-55
2020/12/08 08:30:04;;;;;;;17.92;13.23;;;;;;;19.55;27.48;94229.44;5095254;28;20336;-54
2020/12/08 08:32:31;;;;;;;18.42;13.90;;;;;;;19.48;27.27;94229.22;5095146;28;20059;-56
2020/12/08 08:34:58;;;;;;;18.35;14.40;;;;;;;19.04;28.15;94224.06;5084024;28;20053;-58
2020/12/08 08:37:25;;;;;;;19.52;14.50;;;;;;;19.65;27.49;94234.19;5082050;28;20465;-55
2020/12/08 08:39:52;;;;;;;18.67;12.68;;;;;;;19.35;27.54;94233.09;5095383;28;20048;-58
2020/12/08 08:42:19;;;;;;;17.85;12.85;;;;;;;18.98;28.57;94237.91;5095175;28;20058;-58
2020/12/08 08:44:46;;;;;;;18.85;14.50;;;;;;;18.86;29.82;94241.41;5112552;28;20048;-55
2020/12/08 08:47:13;;;;;;;17.63;13.75;;;;;;;18.81;30.33;94231.06;5110089;28;20052;-57
2020/12/08 08:49:40;;;;;;;16.55;13.68;;;;;;;18.62;30.64;94236.22;5095260;28;20048;-57
2020/12/08 08:52:07;;;;;;;17.10;13.82;;;;;;;18.52;30.28;94231.44;5095048;28;20052;-54
2020/12/08 08:54:34;;;;;;;17.52;14.18;;;;;;;18.58;30.64;94235.38;5095064;28;20060;-56
2020/12/08 08:57:01;;;;;;;18.40;14.63;;;;;;;18.57;30.46;94228.53;5094854;28;20048;-57
2020/12/08 08:59:28;;;;;;;18.98;15.10;;;;;;;18.75;29.72;94229.78;5078907;28;20049;-55
2020/12/08 09:01:55;;;;;;;24.67;19.88;;;;;;;18.67;30.13;94234.13;5074784;28;20064;-56
2020/12/08 09:04:23;;;;;;;27.90;22.58;;;;;;;19.63;28.26;94215.22;5074909;28;20048;-59
2020/12/08 09:06:50;;;;;;;29.10;23.55;;;;;;;19.14;28.68;94222.00;5075850;28;20052;-57
2020/12/08 09:09:17;;;;;;;26.73;22.88;;;;;;;18.59;29.68;94228.97;5095113;28;20044;-58
2020/12/08 09:11:44;;;;;;;27.58;23.70;;;;;;;18.66;29.99;94221.22;5094926;28;20040;-58
2020/12/08 09:14:11;;;;;;;27.75;23.63;;;;;;;18.73;30.03;94216.09;5109962;28;20043;-57
2020/12/08 09:16:40;;;;;;;27.58;23.33;;;;;;;18.73;29.78;94216.88;5119269;28;20052;-55
2020/12/08 09:19:07;;;;;;;26.80;23.13;;;;;;;18.74;30.57;94217.66;5118935;28;20472;-58
2020/12/08 09:21:34;;;;;;;32.05;26.02;;;;;;;18.93;33.25;94209.78;5118731;28;20048;-55
2020/12/08 09:24:01;;;;;;;29.27;23.77;;;;;;;19.32;29.54;94215.25;5086225;28;20060;-55
2020/12/08 09:26:28;;;;;;;26.40;22.10;;;;;;;19.10;29.58;94208.69;5078389;28;20079;-54
2020/12/08 09:28:55;;;;;;;26.73;19.80;;;;;;;18.96;29.76;94197.72;5096384;28;20047;-59
2020/12/08 09:31:22;;;;;;;23.60;20.35;;;;;;;19.24;29.91;94197.63;5098566;28;20048;-55
2020/12/08 09:33:52;;;;;;;23.13;19.83;;;;;;;19.25;29.13;94197.28;5080721;28;20047;-56
2020/12/08 09:36:20;;;;;;;25.65;21.27;;;;;;;18.97;29.77;94197.41;5098551;28;20059;-57
2020/12/08 09:38:47;;;;;;;23.60;19.35;;;;;;;18.93;29.98;94193.91;5098230;28;20048;-59
2020/12/08 09:41:15;;;;;;;20.08;17.77;;;;;;;17.11;34.22;94200.56;5091480;28;20056;-57
2020/12/08 09:43:42;;;;;;;18.70;14.50;;;;;;;17.92;32.58;94189.00;5095026;28;20047;-56
2020/12/08 09:46:09;;;;;;;16.50;14.63;;;;;;;18.26;31.76;94192.97;5118814;28;20039;-56
2020/12/08 09:48:36;;;;;;;20.45;17.20;;;;;;;18.58;31.07;94198.31;5118430;28;20047;-55
2020/12/08 09:51:04;;;;;;;20.73;16.95;;;;;;;18.35;31.10;94200.72;5118573;28;20051;-55
2020/12/08 09:53:31;;;;;;;19.63;17.15;;;;;;;18.37;31.15;94201.94;5118566;28;20055;-55
2020/12/08 09:55:58;;;;;;;18.63;15.40;;;;;;;17.36;32.51;94199.44;5118567;28;20052;-56
2020/12/08 09:58:25;;;;;;;18.27;15.32;;;;;;;17.73;32.58;94192.28;5118284;28;20054;-52
2020/12/08 10:00:52;;;;;;;18.05;15.07;;;;;;;17.40;32.59;94194.28;5101139;28;20057;-55
2020/12/08 10:03:19;;;;;;;19.85;16.27;;;;;;;17.46;33.37;94190.31;5077817;28;20048;-56
2020/12/08 10:05:46;;;;;;;21.55;17.02;;;;;;;17.42;33.13;94200.00;5077851;28;20044;-56
2020/12/08 10:08:13;;;;;;;19.40;15.57;;;;;;;17.71;32.64;94189.19;5088543;28;20052;-55
2020/12/08 10:10:41;;;;;;;16.73;14.30;;;;;;;17.42;32.60;94192.06;5097706;28;20063;-55
2020/12/08 10:13:08;;;;;;;18.42;14.90;;;;;;;17.35;33.33;94191.88;5101296;28;20051;-54
2020/12/08 10:15:35;;;;;;;19.60;15.45;;;;;;;17.30;33.80;94194.72;5118192;28;20054;-57
2020/12/08 10:18:02;;;;;;;19.55;14.88;;;;;;;17.35;32.73;94186.56;5108654;28;20044;-55
2020/12/08 10:20:29;;;;;;;20.38;15.57;;;;;;;17.35;33.00;94191.88;5097397;28;20050;-53
2020/12/08 10:22:56;;;;;;;17.13;14.75;;;;;;;17.23;33.48;94196.06;5097585;28;20052;-58
2020/12/08 10:25:23;;;;;;;17.52;15.15;;;;;;;17.31;33.46;94196.28;5097326;28;20044;-56
2020/12/08 10:27:50;;;;;;;20.45;16.92;;;;;;;17.54;33.12;94192.81;5097338;28;20055;-54
2020/12/08 10:30:17;;;;;;;17.83;15.43;;;;;;;17.23;33.66;94193.44;5097277;28;20462;-58
2020/12/08 10:32:44;;;;;;;16.83;15.02;;;;;;;17.44;33.13;94187.25;5097705;28;20063;-55
2020/12/08 10:35:11;;;;;;;28.35;22.17;;;;;;;17.69;36.04;94186.09;5097409;28;20058;-55
2020/12/08 10:37:38;;;;;;;23.48;19.85;;;;;;;17.75;33.87;94189.28;5117534;28;20052;-57
2020/12/08 10:40:05;;;;;;;21.55;17.85;;;;;;;17.24;33.56;94181.75;5117645;28;20778;-55
2020/12/08 10:42:32;;;;;;;20.98;17.80;;;;;;;17.40;33.87;94181.06;5117182;28;20035;-56
2020/12/08 10:44:59;;;;;;;23.13;20.33;;;;;;;17.64;33.25;94182.88;5117323;28;20371;-57
2020/12/08 10:47:27;;;;;;;30.50;25.60;;;;;;;17.53;33.33;94185.22;5117359;28;20450;-55
2020/12/08 10:49:54;;;;;;;32.00;27.08;;;;;;;17.85;33.00;94179.00;5117246;28;20048;-57
2020/12/08 10:52:22;;;;;;;30.67;25.83;;;;;;;18.58;31.66;94199.06;5112460;28;20446;-55
2020/12/08 10:54:49;;;;;;;28.50;25.13;;;;;;;18.15;31.88;94187.38;5076609;28;20051;-56
2020/12/08 10:57:16;;;;;;;35.42;27.33;;;;;;;17.31;32.89;94191.00;5078017;28;20451;-58
2020/12/08 10:59:43;;;;;;;30.55;25.38;;;;;;;17.63;33.26;94192.69;5096885;28;20078;-56
2020/12/08 11:02:10;;;;;;;28.88;23.38;;;;;;;17.47;33.71;94190.00;5091087;28;20435;-55
2020/12/08 11:04:37;;;;;;;27.23;22.80;;;;;;;17.58;33.38;94179.72;5076581;28;20391;-56
2020/12/08 11:07:04;;;;;;;27.23;22.92;;;;;;;17.91;32.96;94191.97;5076440;28;20044;-60
2020/12/08 11:09:32;;;;;;;29.58;23.95;;;;;;;17.54;33.58;94181.50;5096442;28;20051;-55
2020/12/08 11:11:59;;;;;;;33.17;27.60;;;;;;;18.99;30.77;94187.22;5091873;28;20371;-57
2020/12/08 11:14:28;;;;;;;34.58;28.70;;;;;;;19.26;30.90;94190.13;5105306;28;20358;-55
2020/12/08 11:16:57;;;;;;;40.83;32.63;;;;;;;19.34;29.83;94191.81;5091875;28;20053;-60
2020/12/08 11:19:24;;;;;;;37.33;33.13;;;;;;;19.09;30.09;94184.06;5094818;28;20047;-57
2020/12/08 11:21:51;;;;;;;39.25;34.20;;;;;;;19.36;30.17;94184.28;5096323;28;20059;-56
2020/12/08 11:24:18;;;;;;;38.78;32.50;;;;;;;19.32;29.94;94183.44;5096570;28;20056;-56
2020/12/08 11:26:46;;;;;;;39.17;32.20;;;;;;;19.53;29.70;94176.00;5096351;28;20039;-59
2020/12/08 11:29:13;;;;;;;43.05;34.95;;;;;;;19.39;30.12;94183.59;5096145;28;20047;-58
2020/12/08 11:31:40;;;;;;;44.97;37.88;;;;;;;19.53;29.79;94172.53;5096264;28;20051;-57
2020/12/08 11:34:07;;;;;;;43.30;36.92;;;;;;;19.59;29.86;94176.47;5096360;28;20055;-56